Time;durP1;ratioP1;P1;durP2;ratioP2;P2;SDS_P1;SDS_P2;PMS_P1;PMS_P2;Temp;Humidity;BMP_temperature;BMP_pressure;BME280_temperature;BME280_humidity;BME280_pressure;Samples;Min_cycle;Max_cycle;Signal;HPM_P1;HPM_P2
2024/03/31 00:00:45;;;;;;;6.80;2.35;;;;;;;14.51;65.52;93122.78;5063831;28;21509;-79
2024/03/31 00:03:11;;;;;;;7.20;2.15;;;;;;;14.42;65.33;93112.06;5068725;28;20028;-79
2024/03/31 00:05:36;;;;;;;8.98;2.90;;;;;;;14.21;65.47;93086.91;5063895;28;20606;-79
2024/03/31 00:08:02;;;;;;;6.70;2.30;;;;;;;14.18;65.14;93090.75;5066119;28;20037;-79
2024/03/31 00:10:30;;;;;;;5.30;1.90;;;;;;;14.41;64.68;93123.38;5068489;28;20043;-79
2024/03/31 00:12:56;;;;;;;5.28;2.10;;;;;;;14.11;64.63;93077.19;5064198;28;20037;-78
2024/03/31 00:15:21;;;;;;;7.00;1.77;;;;;;;13.78;64.67;93014.22;5064462;28;20075;-78
2024/03/31 00:17:47;;;;;;;9.38;2.55;;;;;;;14.15;64.09;93060.22;5064604;28;20029;-78
2024/03/31 00:20:13;;;;;;;8.30;2.50;;;;;;;14.55;64.24;93128.25;5068086;28;20082;-79
2024/03/31 00:22:38;;;;;;;6.80;2.70;;;;;;;14.33;64.24;93081.66;5059690;28;20058;-79
2024/03/31 00:25:04;;;;;;;9.30;2.03;;;;;;;14.40;63.66;93095.97;5066000;28;20439;-79
2024/03/31 00:27:29;;;;;;;4.45;1.90;;;;;;;14.33;63.41;93087.63;5065034;28;20024;-78
2024/03/31 00:29:55;;;;;;;4.25;2.28;;;;;;;14.48;63.24;93088.88;5066034;28;20060;-79
2024/03/31 00:32:22;;;;;;;5.93;1.70;;;;;;;14.56;63.35;93080.69;5067161;28;20036;-79
2024/03/31 00:34:48;;;;;;;7.90;3.25;;;;;;;14.72;63.20;93099.00;5064354;28;20477;-78
2024/03/31 00:37:13;;;;;;;6.18;2.13;;;;;;;14.71;62.43;93098.22;5063889;28;20071;-78
2024/03/31 00:39:39;;;;;;;7.32;1.58;;;;;;;14.52;62.27;93059.72;5068417;28;20040;-78
2024/03/31 00:42:05;;;;;;;5.55;1.85;;;;;;;14.86;62.34;93102.06;5064201;28;20817;-78
2024/03/31 00:44:30;;;;;;;5.70;1.80;;;;;;;14.88;61.79;93100.03;5065328;28;20474;-78
2024/03/31 00:47:09;;;;;;;8.40;1.85;;;;;;;14.75;61.58;93062.34;5065159;28;20029;-78
2024/03/31 00:50:01;;;;;;;8.93;2.65;;;;;;;14.16;61.14;92974.75;5063706;28;20041;-78
2024/03/31 00:52:27;;;;;;;6.15;1.75;;;;;;;14.87;61.15;93077.78;5057407;28;20048;-78
2024/03/31 00:54:52;;;;;;;6.32;2.53;;;;;;;15.05;60.87;93102.56;5063784;28;20470;-79
2024/03/31 00:57:18;;;;;;;8.55;2.17;;;;;;;15.04;60.86;93081.09;5064196;28;20037;-78
2024/03/31 00:59:43;;;;;;;7.03;2.00;;;;;;;14.96;60.16;93063.41;5067010;28;20116;-79
2024/03/31 01:02:09;;;;;;;11.13;1.83;;;;;;;14.87;60.57;93070.81;5065961;28;20478;-78
2024/03/31 01:04:34;;;;;;;5.00;1.92;;;;;;;15.05;60.14;93080.06;5066596;28;20067;-78
2024/03/31 01:07:00;;;;;;;4.68;2.20;;;;;;;15.06;60.00;93086.03;5063517;28;20037;-79
2024/03/31 01:09:25;;;;;;;5.72;1.88;;;;;;;14.71;59.64;93015.50;5065955;28;20461;-78
2024/03/31 01:11:51;;;;;;;4.78;1.83;;;;;;;14.76;59.93;93046.63;5061667;28;20094;-79
2024/03/31 01:14:17;;;;;;;7.38;1.90;;;;;;;14.86;59.99;93048.53;5066340;28;20210;-79
2024/03/31 01:16:43;;;;;;;5.00;2.05;;;;;;;14.80;59.57;93049.50;5066319;28;20040;-78
2024/03/31 01:19:10;;;;;;;7.47;2.22;;;;;;;14.77;59.44;93039.66;5066921;28;20062;-77
2024/03/31 01:21:37;;;;;;;7.28;1.88;;;;;;;14.68;59.18;93029.69;5062613;28;20490;-77
2024/03/31 01:24:03;;;;;;;5.10;1.83;;;;;;;14.72;59.15;93044.72;5064908;28;20029;-77
2024/03/31 01:26:29;;;;;;;4.70;2.00;;;;;;;14.79;59.47;93048.72;5064091;28;20436;-78
2024/03/31 01:28:55;;;;;;;6.88;1.70;;;;;;;14.85;59.27;93053.97;5063660;28;20036;-79
2024/03/31 01:31:21;;;;;;;5.20;2.13;;;;;;;15.08;58.83;93087.34;5065088;28;20032;-79
2024/03/31 01:33:46;;;;;;;;;;;;;;;15.17;58.67;93095.47;5063367;28;20062;-78
2024/03/31 01:36:12;;;;;;;5.50;1.73;;;;;;;14.90;58.63;93066.97;5062524;28;19916;-79
2024/03/31 01:38:37;;;;;;;8.75;1.95;;;;;;;15.16;58.58;93093.13;5061498;28;20052;-79
2024/03/31 01:41:03;;;;;;;5.60;1.70;;;;;;;15.16;58.47;93106.84;5064701;28;20166;-79
2024/03/31 01:43:28;;;;;;;6.50;2.25;;;;;;;14.88;58.26;93069.00;5061229;28;20036;-79
2024/03/31 01:45:54;;;;;;;6.28;1.70;;;;;;;15.13;57.97;93085.88;5064416;28;20064;-79
2024/03/31 01:48:19;;;;;;;6.45;1.95;;;;;;;15.10;58.18;93069.78;5065221;28;20036;-79
2024/03/31 01:50:45;;;;;;;5.55;1.70;;;;;;;14.96;57.57;93045.31;5058258;28;20051;-79
2024/03/31 01:53:10;;;;;;;6.53;1.70;;;;;;;15.16;57.74;93091.34;5065380;28;20104;-80
2024/03/31 01:55:36;;;;;;;6.07;1.70;;;;;;;15.16;57.85;93082.78;5060852;28;20041;-80
2024/03/31 01:58:02;;;;;;;4.50;1.27;;;;;;;15.02;56.77;93072.00;5063999;28;20028;-80
2024/03/31 02:00:27;;;;;;;5.70;1.70;;;;;;;14.85;57.98;93039.22;5066517;28;20062;-80
2024/03/31 02:02:53;;;;;;;5.63;2.13;;;;;;;14.96;58.04;93069.34;5055052;28;20123;-80
2024/03/31 02:05:18;;;;;;;7.40;1.90;;;;;;;15.03;58.13;93091.66;5065562;28;20119;-79
2024/03/31 02:07:44;;;;;;;7.38;2.22;;;;;;;15.14;57.38;93105.53;5061364;28;20033;-78
2024/03/31 02:10:10;;;;;;;8.18;1.95;;;;;;;14.94;58.34;93061.06;5062768;28;20178;-79
2024/03/31 02:12:37;;;;;;;7.80;2.00;;;;;;;14.96;58.98;93102.22;5061085;28;20051;-79
2024/03/31 02:15:03;;;;;;;7.95;2.05;;;;;;;14.82;59.22;93076.69;5063210;28;20032;-79
2024/03/31 02:17:28;;;;;;;6.22;1.80;;;;;;;14.55;59.16;93056.66;5060881;28;20911;-79
2024/03/31 02:19:54;;;;;;;6.13;2.75;;;;;;;14.93;59.54;93105.25;5065497;28;20098;-79
2024/03/31 02:22:19;;;;;;;5.03;2.20;;;;;;;14.75;59.58;93104.53;5063388;28;20036;-79
2024/03/31 02:24:45;;;;;;;6.55;1.90;;;;;;;14.48;59.72;93068.19;5060262;28;20052;-79
2024/03/31 02:27:11;;;;;;;7.10;2.00;;;;;;;14.63;60.44;93090.88;5063476;28;20402;-78
2024/03/31 02:29:37;;;;;;;;;;;;;;;14.79;60.40;93110.78;5062521;28;20104;-79
2024/03/31 02:32:02;;;;;;;6.13;1.85;;;;;;;14.19;60.49;93024.34;5063257;28;19947;-79
2024/03/31 02:34:28;;;;;;;5.38;1.70;;;;;;;14.40;60.42;93070.13;5060318;28;20036;-79
2024/03/31 02:36:53;;;;;;;6.53;1.90;;;;;;;14.57;60.65;93108.91;5063157;28;20033;-78
2024/03/31 02:39:19;;;;;;;4.40;1.75;;;;;;;14.25;61.21;93062.16;5065264;28;20032;-79
2024/03/31 02:41:44;;;;;;;6.20;1.88;;;;;;;14.53;61.13;93114.75;5063382;28;20512;-79
2024/03/31 02:44:10;;;;;;;5.25;2.10;;;;;;;14.19;61.48;93084.56;5056923;28;21472;-77
2024/03/31 02:46:35;;;;;;;6.70;2.30;;;;;;;14.22;61.35;93091.84;5063419;28;20124;-78
2024/03/31 02:49:01;;;;;;;7.80;2.40;;;;;;;14.16;61.54;93090.97;5066210;28;20368;-79
2024/03/31 02:51:26;;;;;;;7.72;2.40;;;;;;;14.07;61.55;93087.22;5061874;28;20127;-79
2024/03/31 02:53:52;;;;;;;7.20;2.88;;;;;;;14.10;61.74;93107.41;5063100;28;20095;-79
2024/03/31 02:56:17;;;;;;;6.07;2.33;;;;;;;14.17;62.14;93115.03;5061930;28;20072;-79
2024/03/31 02:58:43;;;;;;;9.77;3.63;;;;;;;13.94;62.95;93118.50;5064661;28;20470;-78
2024/03/31 03:01:08;;;;;;;8.35;2.88;;;;;;;13.36;63.96;93065.88;5057730;28;20045;-78
2024/03/31 03:03:34;;;;;;;4.30;1.85;;;;;;;13.52;64.38;93107.44;5067512;28;20498;-78
2024/03/31 03:05:59;;;;;;;7.47;2.55;;;;;;;13.29;64.76;93077.34;5064769;28;20040;-78
2024/03/31 03:08:25;;;;;;;8.52;2.30;;;;;;;13.49;64.67;93106.13;5063207;28;20032;-78
2024/03/31 03:10:57;;;;;;;8.43;2.38;;;;;;;13.64;64.79;93115.16;5069846;28;20360;-79
2024/03/31 03:13:24;;;;;;;4.28;1.75;;;;;;;13.37;64.62;93064.06;5060694;28;20127;-79
2024/03/31 03:15:50;;;;;;;8.23;1.92;;;;;;;13.60;64.34;93076.13;5066075;28;20600;-78
2024/03/31 03:18:18;;;;;;;5.13;1.90;;;;;;;13.68;64.21;93076.75;5068671;28;20117;-79
2024/03/31 03:20:43;;;;;;;8.43;2.30;;;;;;;13.65;64.24;93085.75;5068919;28;20032;-77
2024/03/31 03:23:09;;;;;;;5.70;1.95;;;;;;;13.71;63.27;93069.31;5065859;28;20102;-77
2024/03/31 03:25:34;;;;;;;8.45;1.80;;;;;;;13.92;62.54;93098.06;5069177;28;20041;-80
2024/03/31 03:28:00;;;;;;;5.05;2.08;;;;;;;14.07;62.62;93109.69;5068450;28;20020;-78
2024/03/31 03:30:25;;;;;;;7.45;1.88;;;;;;;14.01;63.38;93119.94;5069556;28;20028;-77
2024/03/31 03:32:52;;;;;;;7.80;1.85;;;;;;;14.09;62.87;93120.56;5066737;28;20036;-77
2024/03/31 03:35:18;;;;;;;5.85;1.77;;;;;;;13.95;63.01;93095.03;5068740;28;20120;-77
2024/03/31 03:37:43;;;;;;;;;;;;;;;14.28;62.49;93132.25;5068891;28;20036;-78
2024/03/31 03:40:09;;;;;;;12.15;1.88;;;;;;;13.95;62.75;93079.56;5062930;28;19917;-78
2024/03/31 03:42:34;;;;;;;7.03;1.60;;;;;;;14.20;63.11;93124.88;5067531;28;20200;-78
2024/03/31 03:45:00;;;;;;;8.23;2.05;;;;;;;14.14;62.57;93130.97;5068346;28;20032;-78
2024/03/31 03:47:43;;;;;;;6.53;2.35;;;;;;;14.06;62.68;93119.22;5069441;28;20082;-78
2024/03/31 03:50:09;;;;;;;5.13;1.90;;;;;;;14.08;62.93;93137.06;5065693;28;20040;-78
2024/03/31 03:52:37;;;;;;;7.82;2.25;;;;;;;13.82;63.07;93103.84;5063112;28;20069;-78
2024/03/31 03:55:03;;;;;;;4.00;1.75;;;;;;;13.85;63.28;93112.94;5067039;28;20024;-78
2024/03/31 03:57:28;;;;;;;6.10;2.08;;;;;;;14.11;63.13;93149.50;5069029;28;20930;-78
2024/03/31 03:59:54;;;;;;;5.97;2.42;;;;;;;14.13;62.83;93156.00;5061213;28;20459;-78
2024/03/31 04:02:19;;;;;;;7.88;2.65;;;;;;;14.09;62.90;93149.75;5066401;28;20036;-76
2024/03/31 04:04:45;;;;;;;9.25;2.40;;;;;;;13.95;62.87;93133.78;5067547;28;20349;-76
2024/03/31 04:07:10;;;;;;;3.95;1.75;;;;;;;13.84;62.97;93114.72;5064100;28;20083;-76
2024/03/31 04:09:36;;;;;;;4.60;1.50;;;;;;;13.84;62.85;93106.97;5062685;28;20028;-77
2024/03/31 04:12:02;;;;;;;8.07;2.00;;;;;;;13.85;62.53;93100.03;5067562;28;20036;-76
2024/03/31 04:14:27;;;;;;;6.97;2.38;;;;;;;13.97;62.88;93120.63;5066243;28;20447;-75
2024/03/31 04:16:53;;;;;;;6.07;1.58;;;;;;;14.26;62.51;93152.34;5060446;28;20037;-77
2024/03/31 04:19:18;;;;;;;10.02;1.77;;;;;;;14.22;62.65;93145.31;5068444;28;20569;-77
2024/03/31 04:25:04;;;;;;;6.05;2.33;;;;;;;14.12;62.35;93130.44;5042370;28;20098;-78
2024/03/31 04:27:30;;;;;;;5.88;1.65;;;;;;;14.40;62.65;93158.00;5062658;28;20033;-78
2024/03/31 04:29:55;;;;;;;7.85;3.08;;;;;;;14.24;62.79;93127.78;5067166;28;20036;-78
2024/03/31 04:32:20;;;;;;;7.43;3.13;;;;;;;14.27;62.49;93124.72;5065910;28;20082;-76
2024/03/31 04:34:46;;;;;;;6.50;2.40;;;;;;;14.51;62.68;93160.75;5063889;28;20037;-76
2024/03/31 04:37:12;;;;;;;9.20;2.78;;;;;;;14.51;62.71;93160.75;5061324;28;20107;-76
2024/03/31 04:39:37;;;;;;;8.98;3.60;;;;;;;14.69;62.33;93173.44;5067773;28;20398;-76
2024/03/31 04:42:03;;;;;;;5.97;2.15;;;;;;;14.72;62.34;93174.75;5062187;28;20039;-76
2024/03/31 04:44:29;;;;;;;6.50;2.05;;;;;;;14.58;61.94;93163.94;5064274;28;20060;-76
2024/03/31 04:46:54;;;;;;;8.38;2.17;;;;;;;14.36;62.27;93114.78;5060218;28;20024;-77
2024/03/31 04:49:20;;;;;;;12.02;2.63;;;;;;;14.53;62.12;93133.66;5053559;28;20064;-79
2024/03/31 04:51:49;;;;;;;5.10;1.95;;;;;;;14.88;62.13;93168.06;5058594;28;20029;-76
2024/03/31 04:54:16;;;;;;;15.80;4.10;;;;;;;14.85;62.06;93165.16;5054181;28;20521;-78
2024/03/31 04:56:41;;;;;;;5.35;2.58;;;;;;;14.92;61.54;93191.63;5061958;28;20033;-79
2024/03/31 04:59:07;;;;;;;11.15;3.47;;;;;;;14.92;61.24;93183.88;5055125;28;20049;-79
2024/03/31 05:01:33;;;;;;;5.13;2.88;;;;;;;14.99;61.72;93186.31;5055064;28;20107;-79
2024/03/31 05:03:59;;;;;;;;;;;;;;;15.04;62.16;93209.66;5054200;28;20107;-79
2024/03/31 05:06:25;;;;;;;10.88;3.35;;;;;;;15.07;61.88;93217.72;5058978;28;20028;-79
2024/03/31 05:08:50;;;;;;;4.97;2.45;;;;;;;15.09;61.40;93194.22;5058901;28;20044;-79
2024/03/31 05:11:16;;;;;;;8.93;3.90;;;;;;;15.30;60.63;93217.75;5056269;28;20072;-79
2024/03/31 05:13:41;;;;;;;12.30;2.53;;;;;;;15.38;60.29;93217.38;5057854;28;20040;-79
2024/03/31 05:16:09;;;;;;;11.07;4.32;;;;;;;15.28;60.81;93181.00;5050846;28;20032;-79
2024/03/31 05:18:34;;;;;;;9.70;3.30;;;;;;;15.53;61.28;93210.78;5056175;28;20124;-78
2024/03/31 05:21:07;;;;;;;15.57;7.55;;;;;;;15.58;60.66;93195.31;5052723;28;20104;-79
2024/03/31 05:23:34;;;;;;;23.23;8.88;;;;;;;15.82;60.19;93216.59;5052452;28;20425;-78
2024/03/31 05:26:00;;;;;;;15.48;6.70;;;;;;;15.85;59.99;93207.56;5054833;28;20036;-77
2024/03/31 05:28:27;;;;;;;14.48;8.25;;;;;;;16.01;59.57;93217.09;5064691;28;20205;-78
2024/03/31 05:30:52;;;;;;;12.27;5.50;;;;;;;15.95;58.95;93205.09;5054057;28;20116;-78
2024/03/31 05:33:18;;;;;;;9.10;2.72;;;;;;;16.13;59.15;93208.38;5049820;28;20127;-78
2024/03/31 05:35:45;;;;;;;9.50;3.17;;;;;;;16.31;57.89;93212.47;5058595;28;20028;-77
2024/03/31 05:38:11;;;;;;;8.23;2.67;;;;;;;16.53;57.36;93229.78;5052536;28;20029;-78
2024/03/31 05:40:41;;;;;;;18.10;5.70;;;;;;;16.62;58.15;93219.72;5049496;28;20033;-78
2024/03/31 05:43:07;;;;;;;18.63;6.18;;;;;;;16.52;57.53;93191.91;5057719;28;20040;-79
2024/03/31 05:45:37;;;;;;;;;;;;;;;16.92;57.20;93229.56;5058232;28;20024;-79
2024/03/31 05:48:04;;;;;;;12.45;3.85;;;;;;;16.83;56.38;93218.06;5049584;28;20385;-79
2024/03/31 05:50:30;;;;;;;6.30;2.03;;;;;;;16.82;56.05;93208.72;5054599;28;20028;-79
2024/03/31 05:52:55;;;;;;;7.78;1.95;;;;;;;16.79;56.04;93193.66;5054660;28;20024;-78
2024/03/31 05:55:21;;;;;;;5.25;1.65;;;;;;;16.95;55.60;93218.66;5052019;28;20044;-79
2024/03/31 05:57:47;;;;;;;6.90;2.53;;;;;;;16.90;55.43;93187.50;5056577;28;20763;-78
2024/03/31 06:00:13;;;;;;;10.38;2.47;;;;;;;17.00;55.44;93199.78;5060866;28;20110;-77
2024/03/31 06:02:38;;;;;;;7.20;2.10;;;;;;;16.99;54.79;93194.84;5050576;28;20048;-78
2024/03/31 06:05:05;;;;;;;6.88;2.80;;;;;;;17.35;54.20;93226.22;5056118;28;20183;-79
2024/03/31 06:07:31;;;;;;;7.15;2.00;;;;;;;17.36;53.87;93217.41;5054586;28;20447;-78
2024/03/31 06:09:57;;;;;;;6.25;1.90;;;;;;;17.34;53.28;93188.31;5050690;28;20039;-79
2024/03/31 06:12:23;;;;;;;12.88;2.45;;;;;;;17.54;53.00;93216.19;5061749;28;20033;-78
2024/03/31 06:14:48;;;;;;;6.80;1.95;;;;;;;17.57;53.03;93207.09;5054713;28;20358;-78
2024/03/31 06:17:14;;;;;;;7.22;1.90;;;;;;;17.40;52.90;93187.28;5055422;28;20029;-79
2024/03/31 06:19:39;;;;;;;7.38;1.90;;;;;;;17.67;53.12;93216.78;5048128;28;20036;-78
2024/03/31 06:22:05;;;;;;;6.90;1.90;;;;;;;17.69;53.24;93225.09;5071236;28;20036;-79
2024/03/31 06:24:30;;;;;;;4.47;1.80;;;;;;;17.45;53.52;93196.94;5051181;28;20537;-78
2024/03/31 06:26:58;;;;;;;5.53;1.92;;;;;;;17.68;52.88;93226.13;5054968;28;20036;-78
2024/03/31 06:29:23;;;;;;;4.18;1.88;;;;;;;17.62;53.27;93205.31;5051498;28;20033;-79
2024/03/31 06:31:49;;;;;;;11.15;2.35;;;;;;;17.79;52.52;93201.75;5053934;28;20035;-79
2024/03/31 06:34:14;;;;;;;8.10;2.35;;;;;;;18.02;52.15;93223.91;5051891;28;20033;-79
2024/03/31 06:36:42;;;;;;;8.27;2.53;;;;;;;18.14;51.80;93225.50;5050582;28;20028;-78
2024/03/31 06:39:08;;;;;;;8.73;2.97;;;;;;;18.03;51.53;93196.09;5052091;28;20070;-78
2024/03/31 06:41:33;;;;;;;5.80;2.47;;;;;;;18.20;51.55;93201.13;5055064;28;20040;-79
2024/03/31 06:43:59;;;;;;;12.05;2.63;;;;;;;18.54;50.44;93218.84;5056355;28;20068;-79
2024/03/31 06:46:24;;;;;;;6.15;2.22;;;;;;;18.42;50.93;93189.69;5057158;28;20025;-77
2024/03/31 06:48:50;;;;;;;9.93;2.50;;;;;;;18.75;50.41;93220.69;5053318;28;20047;-78
2024/03/31 06:51:15;;;;;;;8.18;2.17;;;;;;;18.68;49.51;93185.28;5053677;28;20282;-79
2024/03/31 06:53:41;;;;;;;6.82;2.10;;;;;;;18.78;49.29;93204.53;5061620;28;20155;-79
2024/03/31 06:56:06;;;;;;;9.13;2.83;;;;;;;18.57;49.33;93139.50;5053796;28;20032;-78
2024/03/31 06:58:32;;;;;;;4.30;1.83;;;;;;;19.31;47.92;93237.31;5057293;28;20902;-78
2024/03/31 07:00:59;;;;;;;7.00;1.55;;;;;;;18.86;48.22;93151.19;5057043;28;20032;-77
2024/03/31 07:03:25;;;;;;;8.95;2.22;;;;;;;19.42;48.33;93219.84;5060092;28;20036;-78
2024/03/31 07:05:51;;;;;;;;;;;;;;;19.84;47.47;93249.94;5053002;28;20037;-79
2024/03/31 07:08:16;;;;;;;4.35;1.45;;;;;;;19.66;47.44;93217.41;5053765;28;19920;-79
2024/03/31 07:10:42;;;;;;;9.32;1.83;;;;;;;19.44;46.99;93195.09;5052859;28;20060;-78
2024/03/31 07:13:07;;;;;;;5.97;1.70;;;;;;;19.85;46.38;93232.47;5054086;28;20444;-78
2024/03/31 07:15:33;;;;;;;4.97;2.35;;;;;;;19.84;46.89;93243.94;5050871;28;20033;-77
2024/03/31 07:18:07;;;;;;;12.52;1.60;;;;;;;19.68;47.09;93211.94;5052528;28;20036;-78
2024/03/31 07:20:33;;;;;;;6.70;1.92;;;;;;;19.84;46.97;93210.06;5053378;28;20056;-78
2024/03/31 07:23:00;;;;;;;7.10;1.50;;;;;;;20.05;47.07;93216.00;5050686;28;20040;-78
2024/03/31 07:25:25;;;;;;;3.72;1.50;;;;;;;20.28;46.25;93243.25;5056362;28;20033;-77
2024/03/31 07:27:51;;;;;;;4.03;1.35;;;;;;;20.20;46.37;93227.38;5053171;28;20039;-78
2024/03/31 07:30:16;;;;;;;6.32;1.67;;;;;;;20.48;46.36;93252.03;5057604;28;20033;-78
2024/03/31 07:32:42;;;;;;;4.13;1.40;;;;;;;20.54;46.17;93245.72;5048651;28;20033;-78
2024/03/31 07:35:07;;;;;;;;;;;;;;;20.76;45.96;93256.78;5054382;28;20044;-78
2024/03/31 07:37:33;;;;;;;3.28;1.42;;;;;;;20.61;46.60;93236.78;5052696;28;19917;-78
2024/03/31 07:39:58;;;;;;;8.30;2.15;;;;;;;20.38;45.77;93205.91;5049853;28;20037;-77
2024/03/31 07:42:23;;;;;;;;;;;;;;;20.75;45.56;93252.63;5055720;28;20115;-78
2024/03/31 07:44:49;;;;;;;6.25;1.95;;;;;;;20.40;45.38;93232.50;5054798;28;19924;-78
2024/03/31 07:47:14;;;;;;;;;;;;;;;20.54;46.00;93242.31;5049348;28;20068;-77
2024/03/31 07:49:40;;;;;;;;;;;;;;;20.67;45.33;93251.38;5051698;28;19998;-77
2024/03/31 07:52:05;;;;;;;9.43;2.73;;;;;;;20.54;45.67;93219.63;5056959;28;19916;-78
2024/03/31 07:54:31;;;;;;;8.00;1.80;;;;;;;20.37;45.47;93174.88;5054545;28;20650;-77
2024/03/31 07:56:56;;;;;;;5.90;1.83;;;;;;;20.58;45.43;93214.63;5060236;28;20040;-78
2024/03/31 07:59:21;;;;;;;;;;;;;;;20.90;45.11;93246.53;5051653;28;20494;-77
2024/03/31 08:01:47;;;;;;;11.57;2.00;;;;;;;21.05;44.95;93251.63;5053164;28;19956;-78
2024/03/31 08:04:12;;;;;;;;;;;;;;;21.06;44.64;93258.41;5054139;28;20029;-79
2024/03/31 08:06:38;;;;;;;7.45;1.55;;;;;;;21.13;44.87;93241.63;5052544;28;19912;-79
2024/03/31 08:09:04;;;;;;;4.80;1.38;;;;;;;21.02;44.65;93227.91;5057762;28;20044;-79
2024/03/31 08:11:30;;;;;;;;;;;;;;;21.27;44.61;93247.00;5057049;28;20478;-79
2024/03/31 08:13:55;;;;;;;4.88;1.48;;;;;;;21.33;44.28;93243.28;5056785;28;19918;-79
2024/03/31 08:16:21;;;;;;;6.20;2.33;;;;;;;21.26;43.92;93235.00;5055445;28;20087;-79
2024/03/31 08:18:46;;;;;;;2.72;1.20;;;;;;;21.12;43.95;93193.06;5053156;28;20061;-79
2024/03/31 08:21:12;;;;;;;4.40;1.90;;;;;;;21.38;43.91;93227.56;5052458;28;20031;-78
2024/03/31 08:23:37;;;;;;;;;;;;;;;21.44;43.29;93226.44;5052630;28;20037;-79
2024/03/31 08:26:03;;;;;;;4.43;1.60;;;;;;;21.21;43.26;93191.44;5054378;28;19942;-78
2024/03/31 08:28:28;;;;;;;;;;;;;;;21.65;43.85;93221.00;5052112;28;20071;-79
2024/03/31 08:30:54;;;;;;;4.80;1.88;;;;;;;21.45;42.84;93190.66;5053042;28;19916;-78
2024/03/31 08:33:19;;;;;;;5.50;2.55;;;;;;;21.60;42.86;93192.31;5052947;28;20037;-79
2024/03/31 08:35:51;;;;;;;;;;;;;;;22.00;42.11;93226.13;5056047;28;20043;-79
2024/03/31 08:38:16;;;;;;;4.32;1.98;;;;;;;21.77;43.28;93184.06;5054781;28;20527;-78
2024/03/31 08:40:44;;;;;;;;;;;;;;;22.06;42.78;93216.38;5061072;28;20071;-79
2024/03/31 08:43:10;;;;;;;4.93;1.20;;;;;;;21.82;42.16;93180.59;5054737;28;19923;-78
2024/03/31 08:45:36;;;;;;;6.97;1.50;;;;;;;21.88;42.01;93195.94;5053879;28;20033;-79
2024/03/31 08:48:02;;;;;;;;;;;;;;;22.13;42.47;93224.69;5056339;28;20035;-79
2024/03/31 08:50:28;;;;;;;4.65;1.35;;;;;;;21.75;42.02;93166.03;5059828;28;19916;-79
2024/03/31 08:52:53;;;;;;;;;;;;;;;22.01;41.73;93222.47;5052167;28;20424;-79
2024/03/31 08:55:19;;;;;;;7.15;1.73;;;;;;;21.76;42.21;93200.81;5053972;28;19916;-78
2024/03/31 08:57:45;;;;;;;;;;;;;;;21.93;42.36;93223.84;5054219;28;20079;-78
2024/03/31 09:00:11;;;;;;;4.53;1.58;;;;;;;21.88;42.93;93214.25;5050648;28;19963;-79
2024/03/31 09:02:40;;;;;;;6.72;1.80;;;;;;;22.03;42.61;93223.75;5050608;28;20048;-78
2024/03/31 09:05:07;;;;;;;4.85;1.23;;;;;;;21.96;42.52;93204.22;5051336;28;20037;-78
2024/03/31 09:07:34;;;;;;;7.75;1.70;;;;;;;21.79;42.46;93181.16;5055325;28;20082;-79
2024/03/31 09:10:03;;;;;;;8.68;1.58;;;;;;;22.01;43.12;93204.94;5057096;28;20035;-79
2024/03/31 09:12:28;;;;;;;6.45;1.60;;;;;;;21.87;42.36;93178.72;5051837;28;20033;-79
2024/03/31 09:14:53;;;;;;;;;;;;;;;22.20;42.19;93209.41;5058204;28;20899;-79
2024/03/31 09:17:19;;;;;;;6.03;1.85;;;;;;;22.33;42.65;93202.69;5052142;28;21074;-80
2024/03/31 09:19:44;;;;;;;;;;;;;;;22.54;42.54;93195.34;5057942;28;20032;-81
2024/03/31 09:22:11;;;;;;;;;;;;;;;22.67;41.25;93188.59;5063020;28;19922;-80
2024/03/31 09:24:37;;;;;;;7.80;1.92;;;;;;;22.53;40.98;93145.88;5055290;28;20038;-79
2024/03/31 09:27:05;;;;;;;15.45;2.17;;;;;;;22.66;40.49;93170.56;5052467;28;20091;-80
2024/03/31 09:29:30;;;;;;;4.22;1.52;;;;;;;22.69;41.33;93151.66;5049090;28;20083;-80
2024/03/31 09:32:03;;;;;;;;;;;;;;;22.96;41.04;93173.75;5054747;28;20522;-79
2024/03/31 09:34:29;;;;;;;6.78;1.48;;;;;;;22.63;41.18;93134.50;5053458;28;19916;-79
2024/03/31 09:36:55;;;;;;;;;;;;;;;22.82;40.74;93169.25;5054586;28;20040;-80
2024/03/31 09:39:20;;;;;;;6.57;1.52;;;;;;;22.50;41.54;93133.34;5051355;28;19982;-80
2024/03/31 09:41:49;;;;;;;;;;;;;;;22.87;41.51;93168.38;5062360;28;20063;-80
2024/03/31 09:44:15;;;;;;;6.47;1.60;;;;;;;22.70;41.16;93161.06;5058574;28;19917;-79
2024/03/31 09:46:40;;;;;;;;;;;;;;;22.87;41.23;93160.50;5050465;28;20037;-79
2024/03/31 09:49:13;;;;;;;6.82;1.20;;;;;;;22.96;40.93;93156.19;5052924;28;19916;-79
2024/03/31 09:51:42;;;;;;;5.55;1.98;;;;;;;22.81;41.39;93120.56;5055868;28;20491;-79
2024/03/31 09:54:31;;;;;;;7.88;1.55;;;;;;;23.16;40.60;93154.28;5054301;28;20072;-80
2024/03/31 09:57:09;;;;;;;5.65;2.03;;;;;;;23.33;39.67;93150.34;5054250;28;20039;-80
2024/03/31 09:59:49;;;;;;;4.53;2.03;;;;;;;23.16;39.84;93124.66;5051346;28;20106;-78
2024/03/31 10:02:16;;;;;;;7.13;1.90;;;;;;;23.27;39.23;93130.50;5051065;28;20504;-78
2024/03/31 10:04:53;;;;;;;4.65;1.63;;;;;;;23.22;38.63;93115.63;5050588;28;20070;-80
2024/03/31 10:07:20;;;;;;;11.73;2.20;;;;;;;23.41;38.18;93127.91;5050432;28;20049;-79
2024/03/31 10:09:47;;;;;;;;;;;;;;;23.54;38.41;93145.47;5049424;28;20039;-78
2024/03/31 10:12:14;;;;;;;7.78;1.45;;;;;;;23.55;38.73;93141.78;5053355;28;20378;-79
2024/03/31 10:14:42;;;;;;;5.13;1.40;;;;;;;23.13;38.28;93135.75;5051072;28;20029;-79
2024/03/31 10:17:09;;;;;;;2.88;1.15;;;;;;;23.15;38.88;93131.75;5068310;28;20028;-79
2024/03/31 10:19:36;;;;;;;7.68;1.70;;;;;;;22.94;38.29;93131.34;5052223;28;20040;-78
2024/03/31 10:22:02;;;;;;;6.22;1.50;;;;;;;23.17;38.79;93134.06;5049182;28;20544;-79
2024/03/31 10:24:30;;;;;;;7.65;1.73;;;;;;;23.26;37.78;93121.06;5051432;28;20043;-79
2024/03/31 10:26:56;;;;;;;7.82;1.98;;;;;;;23.30;36.53;93114.97;5049805;28;20036;-80
2024/03/31 10:29:21;;;;;;;;;;;;;;;23.61;36.43;93150.31;5057596;28;20028;-80
2024/03/31 10:31:47;;;;;;;9.18;1.73;;;;;;;23.46;35.96;93127.78;5048733;28;20019;-80
2024/03/31 10:34:12;;;;;;;;;;;;;;;23.65;36.60;93153.13;5062744;28;20476;-80
2024/03/31 10:36:39;;;;;;;;;;;;;;;23.55;35.02;93164.59;5053076;28;19990;-80
2024/03/31 10:39:06;;;;;;;4.63;1.70;;;;;;;23.48;36.75;93165.00;5047632;28;20369;-78
2024/03/31 10:41:32;;;;;;;4.32;1.02;;;;;;;23.51;35.75;93161.00;5052080;28;20063;-78
2024/03/31 10:43:58;;;;;;;;;;;;;;;23.64;34.90;93173.31;5049144;28;20028;-80
2024/03/31 10:46:23;;;;;;;9.20;1.95;;;;;;;23.46;35.74;93127.78;5059258;28;20343;-79
2024/03/31 10:48:55;;;;;;;;;;;;;;;23.78;35.76;93168.06;5050975;28;20074;-79
2024/03/31 10:51:23;;;;;;;5.53;1.98;;;;;;;23.56;35.88;93135.44;5050073;28;19916;-79
2024/03/31 10:53:50;;;;;;;4.45;1.20;;;;;;;23.57;36.12;93142.28;5058670;28;20823;-79
2024/03/31 10:56:26;;;;;;;5.75;1.50;;;;;;;23.88;35.58;93172.31;5049577;28;20055;-79
2024/03/31 10:58:52;;;;;;;5.30;1.25;;;;;;;23.73;34.55;93144.56;5058481;28;20056;-78
2024/03/31 11:01:18;;;;;;;;;;;;;;;24.00;34.75;93171.81;5054530;28;20482;-79
2024/03/31 11:03:46;;;;;;;3.67;1.35;;;;;;;24.17;35.72;93160.75;5064981;28;19917;-79
2024/03/31 11:06:18;;;;;;;8.15;2.10;;;;;;;24.20;33.42;93143.63;5051182;28;20032;-79
2024/03/31 11:08:46;;;;;;;5.93;1.45;;;;;;;24.32;32.79;93150.94;5048391;28;20505;-78
2024/03/31 11:11:12;;;;;;;7.85;1.33;;;;;;;24.22;31.78;93142.25;5053730;28;20032;-80
2024/03/31 11:13:38;;;;;;;;;;;;;;;24.51;32.76;93158.66;5064359;28;20799;-80
2024/03/31 11:16:08;;;;;;;6.80;1.42;;;;;;;24.35;33.16;93135.38;5056781;28;19924;-80
2024/03/31 11:18:34;;;;;;;6.45;1.60;;;;;;;24.38;34.00;93131.38;5049984;28;20090;-80
2024/03/31 11:21:08;;;;;;;;;;;;;;;24.66;33.54;93160.16;5052695;28;20028;-79
2024/03/31 11:23:40;;;;;;;10.57;1.27;;;;;;;24.63;32.32;93126.63;5055621;28;19975;-79
2024/03/31 11:26:06;;;;;;;9.20;1.90;;;;;;;24.88;31.99;93140.22;5056574;28;20095;-79
2024/03/31 11:28:33;;;;;;;14.65;1.90;;;;;;;25.05;31.96;93142.91;5053544;28;20037;-80
2024/03/31 11:31:00;;;;;;;6.35;2.03;;;;;;;25.17;31.51;93142.38;5054431;28;20039;-79
2024/03/31 11:33:26;;;;;;;6.15;2.00;;;;;;;24.91;30.95;93089.69;5074069;28;20579;-79
2024/03/31 11:35:52;;;;;;;9.27;1.80;;;;;;;25.12;31.80;93116.22;5051504;28;20120;-80
2024/03/31 11:38:18;;;;;;;;;;;;;;;25.48;31.08;93138.94;5058133;28;20031;-80
2024/03/31 11:40:43;;;;;;;6.78;1.48;;;;;;;25.54;31.54;93131.69;5054970;28;19916;-79